« Back
NWS Peachtree City, Ga » Text Product » MCN Terminal Aerodrome Forecast


Printer-friendly Version
Current Version              Previous Versions:   1  2  3  4  5  6  7  8  9  

Terminal Aerodrome Forecast

906
FTUS42 KFFC 311100
TAFMCN
TAF
KMCN 311130Z 3112/0112 00000KT P6SM BKN200
     FM311600 10004KT P6SM SCT040 SCT150
     FM311800 08005KT P6SM BKN050
     FM010000 07005KT P6SM BKN150
     FM010900 06008KT 6SM BR BKN008=

USA.gov is the U.S. government's official web portal to all federal, state and local government web resources and services.